WetterOnline ( https://www.wetteronline.de )

Wetter aktuell Garmisch-Partenkirchen

Aktuelles Wetter: Garmisch-Partenkirchen (719m)

6-stündlich | Neueste Meldungen
Ortszeit Temperatur Wetter
Do, 17.10. 2:00 3.8° C wolkig
Mi, 16.10. 20:00 7.2° C wolkenlos
Mi, 16.10. 14:00 15.0° C wolkenlos
Mi, 16.10. 8:00 6.8° C bedeckt
Mi, 16.10. 2:00 9.2° C leichter Regen
Di, 15.10. 20:00 16.1° C bewölkt
Di, 15.10. 14:00 22.5° C leicht bewölkt
Di, 15.10. 8:00 6.0° C wolkenlos
Ortszeit Temperatur Wetter
Do, 17.10. 7:30 4.0° C leicht bewölkt
Do, 17.10. 7:20 4.0° C leicht bewölkt
Do, 17.10. 7:10 3.7° C leicht bewölkt
Do, 17.10. 7:00 4.1° C leicht bewölkt
Do, 17.10. 6:50 4.1° C leicht bewölkt
Do, 17.10. 6:40 4.2° C wolkig
Do, 17.10. 6:30 4.6° C bedeckt
Do, 17.10. 6:00 4.6° C bedeckt
Do, 17.10. 5:30 4.1° C bedeckt
Do, 17.10. 5:00 4.0° C bedeckt
Do, 17.10. 4:30 4.1° C bedeckt
Ortszeit Relative Feuchte Sichtweite
Do, 17.10. 2:00 99% 50 km
Mi, 16.10. 20:00 95% 45 km
Mi, 16.10. 14:00 56% >70 km
Mi, 16.10. 8:00 98% 1.1 km
Mi, 16.10. 2:00 92% 30 km
Di, 15.10. 20:00 66% 65 km
Di, 15.10. 14:00 36% >70 km
Di, 15.10. 8:00 96% 45 km
Ortszeit Relative Feuchte Sichtweite
Do, 17.10. 7:30 97% 60 km
Do, 17.10. 7:20 97% -
Do, 17.10. 7:10 97% -
Do, 17.10. 7:00 98% 35 km
Do, 17.10. 6:50 98% -
Do, 17.10. 6:40 97% -
Do, 17.10. 6:30 97% >70 km
Do, 17.10. 6:00 97% 60 km
Do, 17.10. 5:30 99% 55 km
Do, 17.10. 5:00 98% 55 km
Do, 17.10. 4:30 97% 65 km
Ortszeit Niederschlagsmenge Niederschlagsart
Do, 17.10. 2:00 0.0 l/m2 in 6 Std. -
Mi, 16.10. 20:00 0.0 l/m2 in 12 Std. -
Mi, 16.10. 14:00 0.0 l/m2 in 6 Std. -
Mi, 16.10. 8:00 16 l/m2 in 12 Std. Regen
Mi, 16.10. 2:00 14 l/m2 in 6 Std. Regen
Di, 15.10. 20:00 0.0 l/m2 in 12 Std. -
Di, 15.10. 14:00 0.0 l/m2 in 6 Std. -
Di, 15.10. 8:00 0.0 l/m2 in 12 Std. -
Ortszeit Niederschlagsmenge Niederschlagsart
Do, 17.10. 7:30 0.0 l/m2 in 1 Std. -
Do, 17.10. 7:20 keine Meldung -
Do, 17.10. 7:10 keine Meldung -
Do, 17.10. 7:00 0.0 l/m2 in 1 Std. -
Do, 17.10. 6:50 keine Meldung -
Do, 17.10. 6:40 keine Meldung -
Do, 17.10. 6:30 0.0 l/m2 in 1 Std. -
Do, 17.10. 6:00 0.0 l/m2 in 1 Std. -
Do, 17.10. 5:30 0.0 l/m2 in 1 Std. -
Do, 17.10. 5:00 0.0 l/m2 in 1 Std. -
Do, 17.10. 4:30 0.0 l/m2 in 1 Std. -
Ortszeit Stärke Spitze Richtung
km/h Bft. km/h Grad Sektor
Do, 17.10. 2:00 4 1 7 220° SW
Mi, 16.10. 20:00 6 1 17 220° SW
Mi, 16.10. 14:00 7 2 11 60° NO
Mi, 16.10. 8:00 4 1 7 170° S
Mi, 16.10. 2:00 0 0 22 - -
Di, 15.10. 20:00 6 1 31 360° N
Di, 15.10. 14:00 9 2 22 140° SO
Di, 15.10. 8:00 4 1 11 270° W
Ortszeit Stärke Spitze Richtung
km/h Bft. km/h Grad Sektor
Do, 17.10. 7:30 4 1 7 240° SW
Do, 17.10. 7:20 4 1 - 240° SW
Do, 17.10. 7:10 4 1 - 160° S
Do, 17.10. 7:00 4 1 7 220° SW
Do, 17.10. 6:50 4 1 - 220° SW
Do, 17.10. 6:40 4 1 - 250° W
Do, 17.10. 6:30 2 1 6 210° SW
Do, 17.10. 6:00 2 1 7 270° W
Do, 17.10. 5:30 4 1 7 230° SW
Do, 17.10. 5:00 4 1 7 210° SW
Do, 17.10. 4:30 4 1 7 250° W
Ortszeit Untergrenze Bedeckung Gattung
total tief tief mittel hoch
Do, 17.10. 2:00 9000 m 7/8 0/8 - - -
Mi, 16.10. 20:00 - 0/8 0/8 - - -
Mi, 16.10. 14:00 8700 m 0/8 0/8 - - -
Mi, 16.10. 8:00 60 m 8/8 8/8 - - -
Mi, 16.10. 2:00 1320 m 7/8 7/8 - - -
Di, 15.10. 20:00 1800 m 8/8 6/8 - - -
Di, 15.10. 14:00 9000 m 5/8 0/8 - - -
Di, 15.10. 8:00 - 0/8 0/8 - - -
Ortszeit Bedeckungsgrad in Achtel und Wolkenuntergrenze
Do, 17.10. 7:30 4(5400m)
Do, 17.10. 7:20 4(5400m)
Do, 17.10. 7:10 2(5400m) 3(8400m)
Do, 17.10. 7:00 3(7500m) 6(8400m)
Do, 17.10. 6:50 3(7500m) 6(8400m)
Do, 17.10. 6:40 1(5400m) 6(7500m) 7(8400m)
Do, 17.10. 6:30 7(5700m) 8(6600m) 8(9000m)
Do, 17.10. 6:00 7(5700m) 8(6300m)
Do, 17.10. 5:30 8(6600m) 8(8100m)
Do, 17.10. 5:00 8(6600m)
Do, 17.10. 4:30 8(6900m)
Ortszeit Luftdruck NN (hPa) Tendenz (hPa in 3 Std.)
Do, 17.10. 2:00 1020 + 0,2
Mi, 16.10. 20:00 1018 + 0,8
Mi, 16.10. 14:00 1016 - 1,1
Mi, 16.10. 8:00 1019 + 1,2
Mi, 16.10. 2:00 1016 + 3,9
Di, 15.10. 20:00 1007 + 2,6
Di, 15.10. 14:00 1004 - 2,2
Di, 15.10. 8:00 1013 - 0,9
Ortszeit Luftdruck NN (hPa) Tendenz (hPa in 3 Std.)
Do, 17.10. 7:30 1020 + 0,4
Do, 17.10. 7:20 1020 keine Meldung
Do, 17.10. 7:10 1020 keine Meldung
Do, 17.10. 7:00 1020 + 0,4
Do, 17.10. 6:50 1020 keine Meldung
Do, 17.10. 6:40 1020 keine Meldung
Do, 17.10. 6:30 1020 + 0,5
Do, 17.10. 6:00 1020 + 0,5
Do, 17.10. 5:30 1020 + 0,3
Do, 17.10. 5:00 1020 + 0,2
Do, 17.10. 4:30 1020 + 0,2
Ortszeit Schneehöhe (cm)
Do, 17.10. 2:00 0
Mi, 16.10. 20:00 0
Mi, 16.10. 14:00 0
Mi, 16.10. 8:00 0
Mi, 16.10. 2:00 0
Di, 15.10. 20:00 0
Di, 15.10. 14:00 0
Di, 15.10. 8:00 0
Ortszeit Schneehöhe (cm)
Do, 17.10. 7:30 0
Do, 17.10. 7:20 0
Do, 17.10. 7:10 0
Do, 17.10. 7:00 0
Do, 17.10. 6:50 0
Do, 17.10. 6:40 0
Do, 17.10. 6:30 0
Do, 17.10. 6:00 0
Do, 17.10. 5:30 0
Do, 17.10. 5:00 0
Do, 17.10. 4:30 0
Link zu dieser Seite / Seite empfehlen

Das Wetter in ...